Time;durP1;ratioP1;P1;durP2;ratioP2;P2;SDS_P1;SDS_P2;PMS_P1;PMS_P2;Temp;Humidity;BMP_temperature;BMP_pressure;BME280_temperature;BME280_humidity;BME280_pressure;Samples;Min_cycle;Max_cycle;Signal;HPM_P1;HPM_P2
2024/01/01 00:00:02;;;;;;;16.80;10.30;;;;;;;6.04;100.00;99661.48;105545;1253;69156;-59
2024/01/01 00:02:58;;;;;;;17.50;10.40;;;;;;;6.07;99.96;99658.09;105558;1253;69113;-59
2024/01/01 00:05:27;;;;;;;17.00;10.40;;;;;;;6.09;99.91;99657.86;105654;1253;72490;-59
2024/01/01 00:07:56;;;;;;;17.60;10.90;;;;;;;6.12;99.94;99655.17;105566;1256;82729;-59
2024/01/01 00:10:24;;;;;;;17.10;10.30;;;;;;;6.14;99.86;99655.64;105586;1255;71137;-59
2024/01/01 00:12:53;;;;;;;17.40;10.60;;;;;;;6.15;99.50;99661.48;105566;1253;69199;-59
2024/01/01 00:15:21;;;;;;;17.40;11.60;;;;;;;6.17;99.48;99661.24;105565;1255;69194;-59
2024/01/01 00:17:49;;;;;;;15.70;9.60;;;;;;;6.18;99.11;99659.31;105557;1253;74621;-59
2024/01/01 00:20:17;;;;;;;17.10;10.80;;;;;;;6.15;99.16;99656.11;105586;1253;83661;-59
2024/01/01 00:22:48;;;;;;;16.30;10.70;;;;;;;6.12;98.52;99653.43;105560;1252;72131;-59
2024/01/01 00:25:16;;;;;;;18.50;11.00;;;;;;;6.07;98.27;99647.68;105572;1253;69275;-59
2024/01/01 00:27:44;;;;;;;18.90;11.80;;;;;;;6.03;98.50;99649.73;105551;1254;69178;-59
2024/01/01 00:30:12;;;;;;;19.50;12.60;;;;;;;5.98;98.06;99653.67;105567;1253;72793;-59
2024/01/01 00:32:41;;;;;;;17.50;11.50;;;;;;;5.94;98.14;99665.08;105575;1253;82761;-59
2024/01/01 00:35:09;;;;;;;20.30;11.70;;;;;;;5.91;98.07;99664.95;105531;1253;72101;-59
2024/01/01 00:37:37;;;;;;;19.10;11.90;;;;;;;5.89;97.98;99657.36;105524;1253;69124;-59
2024/01/01 00:40:07;;;;;;;20.20;11.90;;;;;;;5.88;97.87;99659.16;105628;1252;69259;-59
2024/01/01 00:42:35;;;;;;;18.40;11.60;;;;;;;5.87;97.82;99656.92;105429;1255;74039;-59
2024/01/01 00:45:04;;;;;;;20.00;11.70;;;;;;;5.86;97.77;99660.25;105571;1256;82646;-59
2024/01/01 00:47:33;;;;;;;20.10;12.10;;;;;;;5.84;97.86;99658.06;105586;1252;72191;-59
2024/01/01 00:50:03;;;;;;;19.90;12.10;;;;;;;5.83;97.72;99661.56;105530;1253;69102;-59
2024/01/01 00:52:32;;;;;;;20.00;11.70;;;;;;;5.80;97.84;99662.66;105422;1253;69145;-59
2024/01/01 00:55:00;;;;;;;19.50;11.80;;;;;;;5.81;97.55;99662.82;105612;1253;72767;-59
2024/01/01 00:57:29;;;;;;;19.00;12.50;;;;;;;5.82;97.60;99662.45;105601;1255;81215;-60
2024/01/01 00:59:57;;;;;;;19.00;12.60;;;;;;;5.83;97.72;99665.02;105583;1254;71787;-59
2024/01/01 01:02:26;;;;;;;20.80;12.40;;;;;;;5.84;97.51;99667.80;105657;1255;69113;-61
2024/01/01 01:04:54;;;;;;;20.40;12.60;;;;;;;5.84;97.57;99670.55;105443;1253;69181;-59
2024/01/01 01:07:33;;;;;;;19.70;12.00;;;;;;;5.85;97.33;99675.38;105483;1253;73886;-59
2024/01/01 01:10:04;;;;;;;21.60;13.00;;;;;;;5.83;97.25;99675.77;105528;1253;83007;-59
2024/01/01 01:12:32;;;;;;;21.00;13.10;;;;;;;5.80;97.02;99673.94;105564;1255;73236;-60
2024/01/01 01:15:00;;;;;;;23.40;13.40;;;;;;;5.79;96.97;99672.08;105632;1253;69731;-60
2024/01/01 01:17:28;;;;;;;22.70;13.50;;;;;;;5.77;96.88;99676.46;105623;1256;69211;-59
2024/01/01 01:19:56;;;;;;;23.50;14.00;;;;;;;5.77;97.03;99676.80;105551;1254;72976;-59
2024/01/01 01:22:25;;;;;;;21.60;13.30;;;;;;;5.76;96.95;99675.63;105562;1256;83334;-60
2024/01/01 01:24:53;;;;;;;20.60;13.20;;;;;;;5.77;96.93;99676.48;105555;1252;73396;-60
2024/01/01 01:27:21;;;;;;;24.40;13.40;;;;;;;5.76;97.13;99681.86;105535;1253;69143;-60
2024/01/01 01:29:49;;;;;;;19.50;12.30;;;;;;;5.76;96.77;99682.20;105565;1255;69228;-59
2024/01/01 01:32:18;;;;;;;20.60;13.00;;;;;;;5.77;97.05;99683.92;105643;1255;73376;-60
2024/01/01 01:34:46;;;;;;;23.00;14.60;;;;;;;5.78;96.87;99685.61;105640;1252;81519;-59
2024/01/01 01:37:15;;;;;;;25.00;14.20;;;;;;;5.78;96.96;99686.64;105475;1253;72166;-60
2024/01/01 01:39:44;;;;;;;26.80;16.10;;;;;;;5.79;96.73;99688.89;105547;1255;69112;-60
2024/01/01 01:42:12;;;;;;;24.20;15.10;;;;;;;5.78;96.58;99685.80;105606;1253;69200;-59
2024/01/01 01:44:40;;;;;;;29.30;18.00;;;;;;;5.76;96.59;99688.30;105527;1253;74223;-59
2024/01/01 01:47:09;;;;;;;31.10;18.80;;;;;;;5.72;96.44;99687.69;105516;1253;81567;-60
2024/01/01 01:49:39;;;;;;;27.60;17.00;;;;;;;5.69;96.18;99684.34;105589;1254;73171;-60
2024/01/01 01:52:09;;;;;;;32.10;18.90;;;;;;;5.65;96.02;99687.05;105597;1254;69107;-59
2024/01/01 01:54:37;;;;;;;32.40;18.10;;;;;;;5.60;96.28;99682.67;105556;1255;69115;-60
2024/01/01 01:57:06;;;;;;;31.40;18.30;;;;;;;5.55;96.08;99678.63;105455;1253;72749;-59
2024/01/01 01:59:34;;;;;;;32.70;19.10;;;;;;;5.53;96.23;99669.86;105472;1257;82003;-59
2024/01/01 02:02:03;;;;;;;32.20;19.90;;;;;;;5.51;96.36;99668.02;105460;1253;71766;-60
2024/01/01 02:04:31;;;;;;;34.50;19.50;;;;;;;5.48;96.22;99662.91;105617;1255;69139;-60
2024/01/01 02:07:00;;;;;;;31.70;18.30;;;;;;;5.46;96.16;99658.45;105618;1253;69216;-59
2024/01/01 02:09:30;;;;;;;29.40;19.00;;;;;;;5.44;96.36;99654.52;105489;1253;74167;-60
2024/01/01 02:11:59;;;;;;;30.30;18.60;;;;;;;5.42;96.33;99652.52;105588;1253;81886;-60
2024/01/01 02:14:28;;;;;;;27.20;18.00;;;;;;;5.41;96.53;99652.54;105498;1258;73867;-60
2024/01/01 02:16:56;;;;;;;30.80;18.80;;;;;;;5.41;96.41;99655.32;105618;1255;69154;-60
2024/01/01 02:19:28;;;;;;;28.00;16.80;;;;;;;5.40;96.51;99655.67;105586;1255;69171;-60
2024/01/01 02:21:57;;;;;;;28.10;15.70;;;;;;;5.40;96.54;99653.26;105593;1254;74008;-60
2024/01/01 02:24:25;;;;;;;28.00;15.80;;;;;;;5.40;96.49;99655.86;105490;1258;82894;-60
2024/01/01 02:26:54;;;;;;;30.30;16.80;;;;;;;5.40;96.52;99656.19;105600;1253;71666;-60
2024/01/01 02:29:23;;;;;;;30.50;17.30;;;;;;;5.38;96.42;99649.83;105541;1254;69691;-60
2024/01/01 02:31:51;;;;;;;31.00;17.00;;;;;;;5.37;96.48;99639.14;105619;1256;69145;-61
2024/01/01 02:34:21;;;;;;;33.00;18.90;;;;;;;5.35;96.54;99636.06;105605;1252;72953;-61
2024/01/01 02:36:50;;;;;;;38.60;22.10;;;;;;;5.32;96.40;99630.60;105589;1255;81410;-60
2024/01/01 02:39:18;;;;;;;38.60;24.70;;;;;;;5.24;96.17;99636.38;105441;1252;71931;-61
2024/01/01 02:41:46;;;;;;;42.70;25.40;;;;;;;5.13;95.84;99640.48;105518;1256;69119;-61
2024/01/01 02:44:14;;;;;;;45.10;26.00;;;;;;;5.01;95.65;99642.36;105557;1255;69299;-61
2024/01/01 02:46:43;;;;;;;44.50;24.70;;;;;;;4.90;95.67;99648.01;105539;1253;72991;-61
2024/01/01 02:49:11;;;;;;;39.40;25.30;;;;;;;4.82;95.88;99653.25;105532;1255;82159;-61
2024/01/01 02:51:43;;;;;;;41.70;25.20;;;;;;;4.74;95.99;99652.73;105536;1255;72222;-61
2024/01/01 02:54:12;;;;;;;43.00;25.20;;;;;;;4.67;96.13;99652.05;105576;1255;69124;-61
2024/01/01 02:56:40;;;;;;;46.80;26.00;;;;;;;4.62;96.25;99648.55;105543;1255;69171;-60
2024/01/01 02:59:08;;;;;;;40.70;23.10;;;;;;;4.56;96.17;99644.55;105511;1253;71906;-61
2024/01/01 03:01:36;;;;;;;43.00;26.00;;;;;;;4.47;96.01;99637.66;105589;1255;82794;-61
2024/01/01 03:04:04;;;;;;;47.00;28.00;;;;;;;4.41;96.30;99631.06;105534;1253;72084;-61
2024/01/01 03:06:33;;;;;;;46.40;26.80;;;;;;;4.33;96.32;99635.42;105491;1255;69138;-61
2024/01/01 03:09:01;;;;;;;49.30;28.50;;;;;;;4.24;96.47;99636.65;105521;1253;69197;-61
2024/01/01 03:11:29;;;;;;;47.90;26.30;;;;;;;4.16;96.61;99636.83;105572;1255;71767;-61
2024/01/01 03:13:57;;;;;;;45.30;26.30;;;;;;;4.11;96.85;99635.74;105493;1257;81631;-61
2024/01/01 03:16:25;;;;;;;47.00;28.20;;;;;;;4.05;97.00;99629.49;105507;1253;71661;-61
2024/01/01 03:18:53;;;;;;;64.00;34.80;;;;;;;3.98;97.07;99631.89;105458;1253;69033;-60
2024/01/01 03:21:22;;;;;;;47.90;28.30;;;;;;;3.95;97.42;99630.40;105528;1255;69586;-61
2024/01/01 03:23:50;;;;;;;50.20;26.80;;;;;;;3.91;97.56;99626.52;105589;1253;73137;-60
2024/01/01 03:26:18;;;;;;;47.10;26.30;;;;;;;3.87;97.62;99625.75;105478;1253;80507;-61
2024/01/01 03:28:47;;;;;;;43.70;26.70;;;;;;;3.84;97.82;99621.47;105506;1252;72045;-61
2024/01/01 03:31:15;;;;;;;43.70;25.90;;;;;;;3.83;97.97;99616.15;105546;1256;69202;-61
2024/01/01 03:33:45;;;;;;;46.20;26.30;;;;;;;3.81;98.16;99616.04;105558;1255;69192;-60
2024/01/01 03:36:14;;;;;;;49.40;27.80;;;;;;;3.79;98.27;99612.59;105553;1253;71604;-61
2024/01/01 03:38:42;;;;;;;41.80;24.50;;;;;;;3.78;98.10;99608.48;105562;1255;82813;-61
2024/01/01 03:41:10;;;;;;;50.00;28.70;;;;;;;3.75;98.13;99605.79;105486;1253;72728;-60
2024/01/01 03:43:39;;;;;;;49.30;28.30;;;;;;;3.75;98.63;99607.67;105509;1255;69134;-61
2024/01/01 03:46:07;;;;;;;47.50;26.70;;;;;;;3.75;98.50;99608.20;105618;1256;69204;-61
2024/01/01 03:48:35;;;;;;;44.30;27.60;;;;;;;3.72;98.28;99605.86;105472;1253;72799;-61
2024/01/01 03:51:04;;;;;;;49.80;27.40;;;;;;;3.69;98.40;99606.27;105520;1253;81344;-60
2024/01/01 03:53:33;;;;;;;44.50;26.60;;;;;;;3.67;98.79;99602.48;105599;1253;71496;-61
2024/01/01 03:56:01;;;;;;;45.90;27.00;;;;;;;3.64;98.80;99598.95;105509;1253;69117;-61
2024/01/01 03:58:29;;;;;;;40.00;23.90;;;;;;;3.62;98.91;99594.14;105490;1253;69193;-61
2024/01/01 04:00:57;;;;;;;44.40;26.10;;;;;;;3.62;99.21;99598.46;105633;1253;71760;-61
2024/01/01 04:03:25;;;;;;;49.40;27.40;;;;;;;3.63;99.33;99606.58;105427;1258;81675;-61
2024/01/01 04:05:54;;;;;;;48.30;27.80;;;;;;;3.64;99.60;99609.14;105641;1254;73539;-61
2024/01/01 04:08:25;;;;;;;48.40;28.90;;;;;;;3.65;99.49;99612.40;105527;1253;69190;-61
2024/01/01 04:10:53;;;;;;;46.70;27.60;;;;;;;3.64;99.53;99616.21;105495;1255;69192;-61
2024/01/01 04:13:22;;;;;;;51.20;29.50;;;;;;;3.64;99.45;99615.36;105546;1254;73663;-61
2024/01/01 04:15:50;;;;;;;51.20;29.20;;;;;;;3.64;99.71;99610.86;105515;1255;81475;-61
2024/01/01 04:18:18;;;;;;;48.10;27.30;;;;;;;3.67;99.87;99608.39;105569;1253;72781;-60
2024/01/01 04:20:46;;;;;;;47.70;25.80;;;;;;;3.67;99.70;99612.19;105485;1253;69090;-61
2024/01/01 04:23:15;;;;;;;47.70;27.00;;;;;;;3.65;99.74;99614.11;105502;1255;69141;-61
2024/01/01 04:25:43;;;;;;;45.10;27.20;;;;;;;3.63;99.55;99613.98;105585;1253;72647;-61
2024/01/01 04:28:12;;;;;;;43.10;25.90;;;;;;;3.61;99.65;99616.29;105510;1253;81081;-61
2024/01/01 04:30:40;;;;;;;50.00;26.60;;;;;;;3.59;99.62;99620.28;105522;1252;71806;-61
2024/01/01 04:33:08;;;;;;;46.10;27.10;;;;;;;3.60;99.76;99618.55;105533;1255;69247;-60
2024/01/01 04:35:36;;;;;;;50.30;26.80;;;;;;;3.60;99.80;99615.27;105541;1256;69157;-60
2024/01/01 04:38:05;;;;;;;48.40;25.90;;;;;;;3.59;99.74;99607.85;105528;1255;71990;-61
2024/01/01 04:40:34;;;;;;;43.20;24.50;;;;;;;3.61;99.93;99606.27;105444;1253;81595;-60
2024/01/01 04:43:04;;;;;;;50.60;27.80;;;;;;;3.59;99.93;99602.15;105548;1253;71965;-61
2024/01/01 04:45:35;;;;;;;47.00;25.70;;;;;;;3.59;99.99;99609.75;105527;1255;69285;-61
2024/01/01 04:48:04;;;;;;;46.20;26.30;;;;;;;3.59;99.99;99611.31;105489;1255;69181;-61
2024/01/01 04:50:33;;;;;;;45.10;25.30;;;;;;;3.62;100.00;99615.57;105589;1255;72247;-61
2024/01/01 04:53:01;;;;;;;40.90;22.70;;;;;;;3.65;100.00;99608.06;105510;1255;82982;-61
2024/01/01 04:55:30;;;;;;;40.30;22.20;;;;;;;3.69;100.00;99601.27;105496;1256;72879;-61
2024/01/01 04:57:58;;;;;;;43.20;23.90;;;;;;;3.72;100.00;99596.00;105535;1253;69144;-61
2024/01/01 05:00:27;;;;;;;44.00;25.00;;;;;;;3.72;100.00;99595.64;105559;1256;69291;-61
2024/01/01 05:02:56;;;;;;;45.80;24.90;;;;;;;3.73;100.00;99589.05;105577;1253;71684;-60
2024/01/01 05:05:24;;;;;;;43.30;24.60;;;;;;;3.74;100.00;99588.02;105554;1256;82732;-60
2024/01/01 05:07:53;;;;;;;41.40;23.80;;;;;;;3.75;100.00;99588.35;105527;1253;70335;-61
2024/01/01 05:10:21;;;;;;;42.10;22.10;;;;;;;3.75;100.00;99586.09;105543;1253;69096;-61
2024/01/01 05:12:49;;;;;;;38.10;20.80;;;;;;;3.76;100.00;99584.16;105551;1256;69194;-60
2024/01/01 05:15:18;;;;;;;40.40;21.40;;;;;;;3.80;100.00;99584.92;105497;1253;73689;-61
2024/01/01 05:17:46;;;;;;;37.50;21.70;;;;;;;3.83;100.00;99587.64;105583;1255;81521;-61
2024/01/01 05:20:14;;;;;;;37.90;18.90;;;;;;;3.85;100.00;99581.37;105475;1253;72397;-61
2024/01/01 05:22:42;;;;;;;35.40;21.00;;;;;;;3.87;100.00;99569.23;105503;1253;69090;-61
2024/01/01 05:25:12;;;;;;;42.00;23.10;;;;;;;3.89;100.00;99567.80;105529;1255;69191;-61
2024/01/01 05:27:40;;;;;;;41.70;23.00;;;;;;;3.87;100.00;99573.39;105622;1256;71913;-60
2024/01/01 05:30:09;;;;;;;40.10;23.00;;;;;;;3.84;100.00;99581.73;105501;1255;81537;-60
2024/01/01 05:32:37;;;;;;;45.10;23.60;;;;;;;3.83;100.00;99583.67;105590;1256;71981;-60
2024/01/01 05:35:06;;;;;;;43.60;24.70;;;;;;;3.80;100.00;99581.30;105575;1253;69140;-60
2024/01/01 05:37:34;;;;;;;46.20;26.90;;;;;;;3.75;100.00;99579.34;105595;1255;69171;-61
2024/01/01 05:40:03;;;;;;;46.50;26.30;;;;;;;3.72;100.00;99582.52;105611;1253;73069;-60
2024/01/01 05:42:31;;;;;;;46.10;26.60;;;;;;;3.69;100.00;99586.92;105589;1256;81678;-60
2024/01/01 05:44:59;;;;;;;46.70;25.00;;;;;;;3.68;100.00;99590.23;105487;1253;71889;-61
2024/01/01 05:47:28;;;;;;;45.10;26.30;;;;;;;3.66;100.00;99597.18;105534;1256;69116;-60
2024/01/01 05:49:56;;;;;;;46.20;25.80;;;;;;;3.62;100.00;99590.88;105563;1255;69202;-61
2024/01/01 05:52:24;;;;;;;50.00;27.30;;;;;;;3.58;100.00;99588.36;105551;1253;73928;-60
2024/01/01 05:54:53;;;;;;;50.20;28.30;;;;;;;3.54;100.00;99590.35;105513;1255;82683;-60
2024/01/01 05:57:21;;;;;;;49.20;28.00;;;;;;;3.49;100.00;99592.52;105474;1252;71572;-60
2024/01/01 05:59:49;;;;;;;49.40;27.60;;;;;;;3.44;100.00;99604.02;105485;1253;69192;-60
2024/01/01 06:02:17;;;;;;;52.10;27.60;;;;;;;3.39;100.00;99602.76;105558;1255;69187;-61
2024/01/01 06:04:45;;;;;;;50.40;27.20;;;;;;;3.34;100.00;99603.36;105533;1253;74077;-60
2024/01/01 06:07:14;;;;;;;46.60;26.90;;;;;;;3.32;100.00;99597.02;105524;1256;81418;-60
2024/01/01 06:09:42;;;;;;;48.90;27.20;;;;;;;3.27;100.00;99596.77;105541;1254;73175;-61
2024/01/01 06:12:10;;;;;;;47.40;27.00;;;;;;;3.20;100.00;99603.65;105501;1255;69151;-60
2024/01/01 06:14:38;;;;;;;49.20;26.10;;;;;;;3.15;100.00;99603.91;105499;1255;69289;-60
2024/01/01 06:17:06;;;;;;;45.60;25.70;;;;;;;3.11;100.00;99604.85;105510;1253;75067;-60
2024/01/01 06:19:35;;;;;;;47.90;26.10;;;;;;;3.07;100.00;99605.95;105515;1255;82944;-61
2024/01/01 06:22:03;;;;;;;50.20;26.20;;;;;;;3.03;100.00;99604.52;105505;1257;71525;-60
2024/01/01 06:24:31;;;;;;;47.90;26.10;;;;;;;2.99;100.00;99606.80;105514;1255;69243;-60
2024/01/01 06:27:00;;;;;;;53.10;27.60;;;;;;;2.99;100.00;99608.02;105498;1255;69116;-61
2024/01/01 06:29:28;;;;;;;51.20;28.10;;;;;;;2.99;100.00;99604.91;105526;1253;72770;-60
2024/01/01 06:31:57;;;;;;;55.20;29.20;;;;;;;2.99;100.00;99593.35;105559;1256;81572;-60
2024/01/01 06:34:25;;;;;;;52.60;28.10;;;;;;;2.98;100.00;99594.40;105549;1255;73964;-60
2024/01/01 06:36:54;;;;;;;49.10;27.20;;;;;;;2.98;100.00;99598.21;105578;1253;69633;-60
2024/01/01 06:39:22;;;;;;;52.40;27.50;;;;;;;2.98;100.00;99607.36;105520;1255;69204;-61
2024/01/01 06:41:50;;;;;;;47.40;26.40;;;;;;;2.98;100.00;99611.30;105534;1253;74885;-60
2024/01/01 06:44:18;;;;;;;47.30;26.00;;;;;;;3.00;100.00;99616.98;105594;1255;81390;-60
2024/01/01 06:46:46;;;;;;;53.50;27.20;;;;;;;3.00;100.00;99623.54;105594;1255;71588;-61
2024/01/01 06:49:15;;;;;;;46.80;26.20;;;;;;;3.00;100.00;99622.85;105540;1255;69086;-60
2024/01/01 06:51:50;;;;;;;45.10;25.00;;;;;;;2.99;100.00;99624.07;105558;1255;69411;-61
2024/01/01 06:54:18;;;;;;;44.20;26.10;;;;;;;2.97;100.00;99628.59;105549;1256;72600;-60
2024/01/01 06:56:47;;;;;;;46.10;24.20;;;;;;;2.96;100.00;99628.96;105544;1255;81328;-61
2024/01/01 06:59:15;;;;;;;44.80;25.90;;;;;;;2.95;100.00;99628.98;105510;1258;72697;-61
2024/01/01 07:01:44;;;;;;;47.60;25.00;;;;;;;2.98;100.00;99630.14;105561;1256;69116;-60
2024/01/01 07:04:12;;;;;;;48.00;25.20;;;;;;;3.00;100.00;99631.64;105497;1256;69118;-60
2024/01/01 07:06:40;;;;;;;41.40;24.10;;;;;;;3.03;100.00;99635.72;105506;1253;72130;-60
2024/01/01 07:09:12;;;;;;;44.00;23.70;;;;;;;3.04;100.00;99641.92;105602;1255;82772;-60
2024/01/01 07:11:40;;;;;;;40.40;24.50;;;;;;;3.03;100.00;99641.60;105560;1254;71924;-60
2024/01/01 07:14:09;;;;;;;45.70;24.30;;;;;;;3.05;100.00;99641.39;105566;1256;69103;-61
2024/01/01 07:16:37;;;;;;;45.60;24.20;;;;;;;3.10;100.00;99635.27;105485;1255;69196;-61
2024/01/01 07:19:06;;;;;;;43.60;23.20;;;;;;;3.16;100.00;99633.77;105539;1254;73088;-59
2024/01/01 07:21:34;;;;;;;40.70;22.00;;;;;;;3.21;100.00;99632.46;105857;1255;81863;-60
2024/01/01 07:24:03;;;;;;;41.30;22.40;;;;;;;3.25;100.00;99635.31;105564;1256;71738;-62
2024/01/01 07:26:31;;;;;;;31.60;16.30;;;;;;;3.29;100.00;99632.14;105685;1258;69140;-61
2024/01/01 07:28:59;;;;;;;28.00;15.50;;;;;;;3.36;100.00;99633.38;105564;1254;69183;-61
2024/01/01 07:31:27;;;;;;;25.70;14.80;;;;;;;3.45;100.00;99629.23;105674;1254;72756;-61
2024/01/01 07:33:55;;;;;;;24.80;14.50;;;;;;;3.57;100.00;99630.35;105556;1256;81511;-61
2024/01/01 07:36:24;;;;;;;29.50;15.20;;;;;;;3.72;100.00;99630.74;105563;1254;73049;-61
2024/01/01 07:38:52;;;;;;;24.80;15.00;;;;;;;3.85;100.00;99637.54;105573;1255;69116;-62
2024/01/01 07:41:21;;;;;;;23.80;13.50;;;;;;;3.99;100.00;99638.44;105568;1256;69174;-62
2024/01/01 07:43:49;;;;;;;25.40;12.30;;;;;;;4.10;100.00;99636.96;105843;1255;72920;-62
2024/01/01 07:46:18;;;;;;;20.70;12.30;;;;;;;4.20;100.00;99639.34;105799;1255;82625;-62
2024/01/01 07:48:46;;;;;;;25.80;13.50;;;;;;;4.28;100.00;99635.52;105553;1257;71785;-62
2024/01/01 07:51:15;;;;;;;26.90;14.20;;;;;;;4.37;100.00;99640.33;105766;1253;69117;-64
2024/01/01 07:53:43;;;;;;;21.90;12.70;;;;;;;4.45;100.00;99644.63;105533;1255;69087;-64
2024/01/01 07:56:11;;;;;;;24.40;13.10;;;;;;;4.52;100.00;99646.39;105518;1255;72886;-63
2024/01/01 07:58:39;;;;;;;21.90;12.20;;;;;;;4.60;100.00;99652.58;105531;1255;81807;-62
2024/01/01 08:01:08;;;;;;;21.80;11.20;;;;;;;4.68;100.00;99652.19;105533;1255;72740;-62
2024/01/01 08:03:36;;;;;;;20.80;11.00;;;;;;;4.76;100.00;99659.08;105529;1256;69128;-62
2024/01/01 08:06:04;;;;;;;18.10;9.80;;;;;;;4.83;100.00;99659.09;105768;1255;69176;-60
2024/01/01 08:08:33;;;;;;;22.50;11.20;;;;;;;4.89;100.00;99658.92;105580;1258;73107;-59
2024/01/01 08:11:01;;;;;;;17.40;10.30;;;;;;;4.96;100.00;99656.35;105523;1253;81528;-60
2024/01/01 08:13:30;;;;;;;18.10;9.70;;;;;;;5.01;100.00;99652.05;105596;1254;73176;-60
2024/01/01 08:15:59;;;;;;;19.50;10.10;;;;;;;5.04;100.00;99647.80;105531;1255;69026;-60
2024/01/01 08:18:28;;;;;;;18.30;10.30;;;;;;;5.07;100.00;99654.67;105797;1255;69099;-59
2024/01/01 08:20:56;;;;;;;18.00;10.90;;;;;;;5.09;100.00;99658.23;105677;1256;74368;-60
2024/01/01 08:23:24;;;;;;;23.10;11.90;;;;;;;5.10;100.00;99656.33;105545;1255;81537;-59
2024/01/01 08:25:53;;;;;;;23.80;11.10;;;;;;;5.11;100.00;99654.55;105588;1255;71746;-59
2024/01/01 08:28:21;;;;;;;21.60;10.80;;;;;;;5.13;100.00;99652.07;105556;1253;69132;-59
2024/01/01 08:30:49;;;;;;;16.60;9.80;;;;;;;5.16;100.00;99644.23;105543;1255;69106;-60
2024/01/01 08:33:17;;;;;;;16.60;9.50;;;;;;;5.19;100.00;99645.00;105543;1254;73090;-60
2024/01/01 08:35:46;;;;;;;16.90;8.80;;;;;;;5.25;100.00;99638.76;105535;1254;81809;-59
2024/01/01 08:38:14;;;;;;;17.70;8.90;;;;;;;5.33;100.00;99638.90;105589;1254;71976;-58
2024/01/01 08:40:42;;;;;;;10.50;6.70;;;;;;;5.38;100.00;99641.35;105690;1254;69231;-59
2024/01/01 08:43:11;;;;;;;11.90;6.80;;;;;;;5.45;100.00;99638.21;105586;1256;69302;-58
2024/01/01 08:45:39;;;;;;;10.90;6.10;;;;;;;5.52;100.00;99641.64;105542;1255;73150;-59
2024/01/01 08:48:07;;;;;;;11.40;5.50;;;;;;;5.63;100.00;99648.25;105688;1253;80774;-59
2024/01/01 08:50:36;;;;;;;9.70;5.10;;;;;;;5.71;100.00;99650.98;105673;1254;72913;-58
2024/01/01 08:53:05;;;;;;;6.00;3.80;;;;;;;5.82;100.00;99653.45;105682;1257;69154;-59
2024/01/01 08:55:33;;;;;;;9.10;4.60;;;;;;;5.94;100.00;99655.35;105631;1258;69162;-59
2024/01/01 08:58:02;;;;;;;10.30;5.10;;;;;;;6.05;99.98;99647.92;105513;1254;73619;-59
2024/01/01 09:00:30;;;;;;;10.20;4.60;;;;;;;6.13;99.88;99651.34;105631;1256;81472;-59
2024/01/01 09:02:59;;;;;;;7.30;4.20;;;;;;;6.19;99.58;99652.70;105718;1256;72598;-59
2024/01/01 09:05:27;;;;;;;8.40;4.10;;;;;;;6.25;99.26;99650.61;105634;1255;69636;-59
2024/01/01 09:07:56;;;;;;;8.10;4.40;;;;;;;6.30;98.97;99650.28;105546;1256;69195;-59
2024/01/01 09:10:24;;;;;;;9.50;4.00;;;;;;;6.33;98.53;99650.35;105649;1256;72618;-59
2024/01/01 09:12:53;;;;;;;9.20;4.50;;;;;;;6.37;98.52;99648.49;105512;1255;81716;-59
2024/01/01 09:15:21;;;;;;;11.80;4.50;;;;;;;6.40;98.13;99650.30;105836;1257;71536;-59
2024/01/01 09:17:49;;;;;;;9.80;4.10;;;;;;;6.44;97.90;99650.69;105531;1256;69122;-59
2024/01/01 09:20:18;;;;;;;8.80;4.20;;;;;;;6.47;97.46;99650.08;105687;1252;69169;-58
2024/01/01 09:22:50;;;;;;;7.80;4.00;;;;;;;6.52;97.56;99651.13;105654;1257;72870;-59
2024/01/01 09:25:19;;;;;;;11.20;4.20;;;;;;;6.57;97.34;99644.72;105735;1256;81586;-58
2024/01/01 09:27:47;;;;;;;7.60;4.30;;;;;;;6.62;97.03;99646.28;105543;1254;71678;-61
2024/01/01 09:30:16;;;;;;;6.90;3.60;;;;;;;6.67;96.61;99649.41;105518;1259;69152;-61
2024/01/01 09:32:45;;;;;;;8.20;4.20;;;;;;;6.73;96.49;99645.75;105628;1258;69524;-61
2024/01/01 09:35:13;;;;;;;6.90;4.20;;;;;;;6.78;96.40;99643.00;105531;1256;73186;-61
2024/01/01 09:37:41;;;;;;;7.00;4.20;;;;;;;6.82;96.32;99643.52;105530;1257;80666;-60
2024/01/01 09:40:10;;;;;;;8.80;3.90;;;;;;;6.88;95.97;99640.57;105568;1256;71921;-59
2024/01/01 09:42:46;;;;;;;9.40;4.10;;;;;;;6.92;95.53;99632.60;105643;1254;69185;-60
2024/01/01 09:45:14;;;;;;;8.50;4.60;;;;;;;6.97;95.41;99638.17;105607;1257;69198;-62
2024/01/01 09:47:43;;;;;;;8.30;4.30;;;;;;;7.01;94.84;99635.95;105890;1255;73628;-61
2024/01/01 09:50:11;;;;;;;8.80;4.20;;;;;;;7.06;94.99;99636.80;105710;1256;81713;-62
2024/01/01 09:52:39;;;;;;;9.40;4.60;;;;;;;7.11;94.83;99631.10;105568;1258;71708;-61
2024/01/01 09:55:08;;;;;;;7.90;4.30;;;;;;;7.16;94.82;99631.09;105565;1257;69171;-61
2024/01/01 09:57:36;;;;;;;10.10;4.60;;;;;;;7.21;94.69;99630.02;105713;1256;69065;-62
2024/01/01 10:00:19;;;;;;;9.00;4.40;;;;;;;7.26;94.33;99626.71;105574;1255;73311;-62
2024/01/01 10:02:47;;;;;;;8.50;4.50;;;;;;;7.32;94.14;99624.95;105614;1256;82758;-61
2024/01/01 10:05:16;;;;;;;8.90;4.20;;;;;;;7.37;93.71;99624.59;105618;1256;72188;-61
2024/01/01 10:07:47;;;;;;;8.60;4.40;;;;;;;7.43;93.47;99621.23;105662;1254;69092;-59
2024/01/01 10:10:27;;;;;;;8.40;4.50;;;;;;;7.48;93.42;99618.10;105731;1257;69155;-59
2024/01/01 10:13:06;;;;;;;7.70;4.40;;;;;;;7.54;93.01;99623.29;105705;1256;74920;-58
2024/01/01 10:15:38;;;;;;;8.60;4.30;;;;;;;7.55;92.94;99616.45;105714;1256;82001;-59
2024/01/01 10:18:12;;;;;;;10.60;4.90;;;;;;;7.54;92.96;99621.70;105695;1255;73385;-59
2024/01/01 10:20:43;;;;;;;9.10;5.00;;;;;;;7.52;92.43;99626.30;105686;1257;69120;-59
2024/01/01 10:23:20;;;;;;;9.00;4.60;;;;;;;7.49;92.55;99624.14;105571;1257;69199;-59
2024/01/01 10:26:04;;;;;;;10.90;5.00;;;;;;;7.46;92.36;99622.70;105551;1254;74322;-59
2024/01/01 10:28:33;;;;;;;10.70;5.00;;;;;;;7.42;91.64;99625.48;105585;1256;82815;-60
2024/01/01 10:31:02;;;;;;;11.70;5.20;;;;;;;7.39;91.55;99622.42;105534;1256;71935;-59
2024/01/01 10:33:32;;;;;;;10.30;5.90;;;;;;;7.41;91.85;99619.25;105840;1256;69138;-58
2024/01/01 10:36:01;;;;;;;10.50;5.20;;;;;;;7.42;91.74;99618.50;105492;1257;69186;-59
2024/01/01 10:38:31;;;;;;;12.00;5.80;;;;;;;7.43;91.38;99618.48;105638;1260;73030;-57
2024/01/01 10:40:59;;;;;;;10.10;5.90;;;;;;;7.41;90.84;99621.66;105473;1256;256720;-58
2024/01/01 10:43:28;;;;;;;10.00;5.10;;;;;;;7.40;90.53;99614.58;105664;1257;70987;-58
2024/01/01 10:46:04;;;;;;;7.70;5.00;;;;;;;7.41;90.80;99613.18;105579;1257;69197;-58
2024/01/01 10:48:33;;;;;;;10.60;5.70;;;;;;;7.42;90.75;99615.75;105742;1253;69181;-59
2024/01/01 10:51:42;;;;;;;9.10;5.30;;;;;;;7.42;90.62;99616.27;105574;1255;74142;-59
2024/01/01 10:54:28;;;;;;;10.40;5.70;;;;;;;7.42;90.59;99619.89;105588;1257;81838;-59
2024/01/01 10:57:02;;;;;;;11.00;5.80;;;;;;;7.44;90.47;99619.32;105518;1256;71731;-59
2024/01/01 10:59:40;;;;;;;8.50;5.30;;;;;;;7.45;90.56;99615.77;105522;1256;69548;-59
2024/01/01 11:02:09;;;;;;;9.80;5.70;;;;;;;7.46;90.65;99614.71;105485;1255;69263;-59
2024/01/01 11:04:37;;;;;;;7.90;4.80;;;;;;;7.47;90.28;99617.10;105597;1254;73040;-59
2024/01/01 11:07:06;;;;;;;9.20;5.70;;;;;;;7.48;89.90;99614.29;105552;1257;81817;-59
2024/01/01 11:09:34;;;;;;;11.30;5.70;;;;;;;7.50;89.93;99613.19;105587;1256;73220;-59
2024/01/01 11:12:05;;;;;;;10.10;5.50;;;;;;;7.50;89.77;99606.05;105551;1252;69179;-59
2024/01/01 11:14:44;;;;;;;;;;;;;;;7.51;90.02;99603.21;105471;1258;69190;-59
2024/01/01 11:17:22;;;;;;;9.70;5.40;;;;;;;7.52;89.81;99607.34;105629;1256;73875;-59
2024/01/01 11:19:51;;;;;;;9.80;5.20;;;;;;;7.54;89.48;99606.08;105549;1256;81599;-59
2024/01/01 11:22:19;;;;;;;10.00;5.80;;;;;;;7.55;89.23;99608.45;105575;1257;73161;-60
2024/01/01 11:24:50;;;;;;;9.60;5.40;;;;;;;7.57;89.41;99609.24;105498;1258;69042;-59